Time;durP1;ratioP1;P1;durP2;ratioP2;P2;SDS_P1;SDS_P2;PMS_P1;PMS_P2;Temp;Humidity;BMP_temperature;BMP_pressure;BME280_temperature;BME280_humidity;BME280_pressure;Samples;Min_cycle;Max_cycle;Signal;HPM_P1;HPM_P2
2022/11/15 00:00:58;;;;;;;21.43;14.47;;;;;11.10;100255.00;;;;10481404;28;20245;-76
2022/11/15 00:06:19;;;;;;;24.30;15.10;;;;;11.10;100249.00;;;;10473069;28;20614;-77
2022/11/15 00:11:39;;;;;;;23.97;15.53;;;;;11.20;100250.00;;;;10467645;28;20714;-76
2022/11/15 00:17:00;;;;;;;21.57;15.73;;;;;11.30;100255.00;;;;10467237;28;20190;-76
2022/11/15 00:22:21;;;;;;;21.90;15.40;;;;;11.30;100257.00;;;;10480807;28;20555;-76
2022/11/15 00:27:42;;;;;;;20.83;14.17;;;;;11.30;100253.00;;;;10483675;28;20193;-76
2022/11/15 00:33:06;;;;;;;23.30;14.47;;;;;11.30;100252.00;;;;10429255;28;20187;-76
2022/11/15 00:38:31;;;;;;;23.23;15.40;;;;;11.30;100270.00;;;;10425234;28;20198;-74
2022/11/15 00:43:51;;;;;;;24.83;16.10;;;;;11.30;100273.00;;;;10441734;28;20191;-76
2022/11/15 00:49:12;;;;;;;22.77;16.50;;;;;11.30;100269.00;;;;10438854;28;20178;-76
2022/11/15 00:54:32;;;;;;;25.67;16.83;;;;;11.40;100268.00;;;;10440942;28;20216;-74
2022/11/15 00:59:53;;;;;;;22.97;16.83;;;;;11.40;100278.00;;;;10465047;28;20209;-76
2022/11/15 01:05:14;;;;;;;28.33;17.00;;;;;11.50;100266.00;;;;10447797;28;20225;-77
2022/11/15 01:10:34;;;;;;;26.23;16.87;;;;;11.50;100266.00;;;;10456214;28;20255;-76
2022/11/15 01:15:55;;;;;;;25.73;17.10;;;;;11.60;100263.00;;;;10478942;28;20190;-74
2022/11/15 01:21:18;;;;;;;23.90;15.97;;;;;11.60;100262.00;;;;10465254;28;20209;-76
2022/11/15 01:26:39;;;;;;;27.63;17.03;;;;;11.60;100259.00;;;;10454322;28;20530;-76
2022/11/15 01:31:59;;;;;;;27.03;18.27;;;;;11.60;100261.00;;;;10467566;28;20185;-74
2022/11/15 01:37:20;;;;;;;28.87;18.60;;;;;11.60;100253.00;;;;10431251;28;20213;-74
2022/11/15 01:42:41;;;;;;;27.47;18.87;;;;;11.60;100244.00;;;;10462426;28;20676;-76
2022/11/15 01:48:02;;;;;;;28.00;18.57;;;;;11.50;100229.00;;;;10497294;28;20197;-76
2022/11/15 01:53:24;;;;;;;26.30;17.27;;;;;11.50;100233.00;;;;10496925;28;20189;-74
2022/11/15 01:58:46;;;;;;;25.67;16.70;;;;;11.60;100241.00;;;;10465096;28;20671;-76
2022/11/15 02:04:16;;;;;;;24.50;16.23;;;;;11.60;100235.00;;;;10478787;28;20208;-78
2022/11/15 02:09:38;;;;;;;26.13;15.80;;;;;11.60;100233.00;;;;10465716;28;20181;-78
2022/11/15 02:15:00;;;;;;;19.10;13.87;;;;;11.60;100238.00;;;;10447159;28;20209;-78
2022/11/15 02:20:51;;;;;;;19.57;13.23;;;;;11.60;100220.00;;;;10447896;28;20205;-79
2022/11/15 02:26:50;;;;;;;19.97;11.47;;;;;11.60;100208.00;;;;10476854;28;20202;-76
2022/11/15 02:32:38;;;;;;;19.87;11.50;;;;;11.50;100198.00;;;;10476888;28;20648;-76
2022/11/15 02:38:08;;;;;;;18.13;11.73;;;;;11.50;100196.00;;;;10477384;28;20618;-78
2022/11/15 02:43:58;;;;;;;21.00;11.43;;;;;11.40;100193.00;;;;10460708;28;20198;-78
2022/11/15 02:49:19;;;;;;;16.80;11.80;;;;;11.40;100180.00;;;;10463234;28;20198;-78
2022/11/15 02:54:39;;;;;;;17.33;11.67;;;;;11.30;100188.00;;;;10477308;28;20189;-76
2022/11/15 03:00:23;;;;;;;16.90;11.47;;;;;11.40;100186.00;;;;10462895;28;20201;-78
2022/11/15 03:05:51;;;;;;;20.97;12.17;;;;;11.50;100177.00;;;;10435753;28;20225;-78
2022/11/15 03:11:18;;;;;;;19.27;11.80;;;;;11.50;100177.00;;;;10435359;28;20178;-76
2022/11/15 03:16:57;;;;;;;19.47;11.67;;;;;11.40;100180.00;;;;10439740;28;20707;-78
2022/11/15 03:22:20;;;;;;;19.87;10.93;;;;;11.50;100177.00;;;;10462720;28;20217;-78
2022/11/15 03:27:46;;;;;;;14.67;10.10;;;;;11.40;100180.00;;;;10470171;28;20225;-78
2022/11/15 03:33:08;;;;;;;12.67;8.87;;;;;11.40;100186.00;;;;10455413;28;20188;-78
2022/11/15 03:38:31;;;;;;;16.30;8.90;;;;;11.40;100185.00;;;;10477330;28;20193;-78
2022/11/15 03:44:20;;;;;;;10.63;7.53;;;;;11.40;100185.00;;;;10470842;28;20212;-79
2022/11/15 03:49:46;;;;;;;13.43;7.83;;;;;11.40;100182.00;;;;10470031;28;20201;-78
2022/11/15 03:55:10;;;;;;;12.13;7.17;;;;;11.40;100185.00;;;;10486513;28;20189;-78
2022/11/15 04:00:31;;;;;;;9.43;6.33;;;;;11.30;100180.00;;;;10483599;28;20208;-76
2022/11/15 04:05:51;;;;;;;10.90;6.37;;;;;11.30;100180.00;;;;10443489;28;20225;-78
2022/11/15 04:11:12;;;;;;;10.60;6.50;;;;;11.30;100177.00;;;;10477600;28;20212;-78
2022/11/15 04:16:32;;;;;;;13.27;6.10;;;;;11.30;100180.00;;;;10468016;28;20871;-78
2022/11/15 04:27:32;;;;;;;10.67;6.80;;;;;11.10;100188.00;;;;10481982;28;20209;-76
2022/11/15 04:32:52;;;;;;;9.60;6.13;;;;;11.10;100167.00;;;;10448700;28;20182;-78
2022/11/15 04:38:13;;;;;;;14.53;6.43;;;;;11.00;100171.00;;;;10449237;28;20197;-78
2022/11/15 04:43:33;;;;;;;10.93;5.13;;;;;10.90;100174.00;;;;10457083;28;20209;-76
2022/11/15 04:48:55;;;;;;;9.33;5.57;;;;;10.90;100180.00;;;;10446834;28;20197;-78
2022/11/15 04:54:18;;;;;;;9.33;5.57;;;;;10.80;100168.00;;;;10447212;28;20197;-78
2022/11/15 04:59:39;;;;;;;9.23;5.80;;;;;10.70;100172.00;;;;10445171;28;20194;-78
2022/11/15 05:04:59;;;;;;;8.03;5.83;;;;;10.60;100173.00;;;;10454466;28;20225;-78
2022/11/15 05:10:20;;;;;;;11.27;6.20;;;;;10.40;100171.00;;;;10457736;28;20652;-78
2022/11/15 05:15:40;;;;;;;12.60;6.27;;;;;10.40;100172.00;;;;10444847;28;20197;-78
2022/11/15 05:21:06;;;;;;;11.60;5.37;;;;;10.30;100175.00;;;;10448666;28;20198;-78
2022/11/15 05:26:27;;;;;;;12.10;6.50;;;;;10.20;100171.00;;;;10440782;28;20202;-79
2022/11/15 05:31:47;;;;;;;8.23;5.40;;;;;10.10;100172.00;;;;10479661;28;20189;-78
2022/11/15 05:37:08;;;;;;;13.10;5.00;;;;;10.00;100172.00;;;;10450156;28;20182;-78
2022/11/15 05:42:30;;;;;;;9.00;4.87;;;;;10.00;100175.00;;;;10426024;28;20610;-78
2022/11/15 05:47:53;;;;;;;7.03;4.10;;;;;9.90;100173.00;;;;10431858;28;20219;-78
2022/11/15 05:53:18;;;;;;;9.97;3.97;;;;;9.90;100160.00;;;;10426232;28;20653;-78
2022/11/15 05:58:39;;;;;;;4.87;3.70;;;;;9.80;100166.00;;;;10448871;28;20255;-78
2022/11/15 06:03:59;;;;;;;7.67;4.83;;;;;9.70;100175.00;;;;10452638;28;20201;-78
2022/11/15 06:09:20;;;;;;;7.67;3.90;;;;;9.50;100186.00;;;;10437406;28;20177;-78
2022/11/15 06:14:40;;;;;;;8.23;4.17;;;;;9.60;100171.00;;;;10426010;28;20198;-78
2022/11/15 06:20:01;;;;;;;7.23;4.43;;;;;9.60;100173.00;;;;10437221;28;20206;-78
2022/11/15 06:25:22;;;;;;;5.93;4.57;;;;;9.50;100177.00;;;;10423492;28;20197;-78
2022/11/15 06:30:42;;;;;;;8.13;3.83;;;;;9.40;100164.00;;;;10455862;28;20194;-78
2022/11/15 06:36:09;;;;;;;6.67;3.77;;;;;9.10;100163.00;;;;10445960;28;20186;-79
2022/11/15 06:41:36;;;;;;;8.17;4.30;;;;;9.00;100168.00;;;;10437731;28;20241;-79
2022/11/15 06:46:57;;;;;;;9.63;4.27;;;;;8.80;100160.00;;;;10441579;28;20194;-78
2022/11/15 06:52:19;;;;;;;12.43;5.50;;;;;8.70;100168.00;;;;10446052;28;20194;-79
2022/11/15 06:57:47;;;;;;;7.63;4.80;;;;;8.70;100177.00;;;;10453127;28;20196;-79
2022/11/15 07:03:08;;;;;;;8.13;4.53;;;;;8.60;100179.00;;;;10417966;28;20207;-79
2022/11/15 07:08:29;;;;;;;5.90;4.73;;;;;8.60;100177.00;;;;10479734;28;20684;-79
2022/11/15 07:13:50;;;;;;;9.03;4.67;;;;;8.60;100192.00;;;;10479209;28;20185;-79
2022/11/15 07:19:11;;;;;;;11.90;5.30;;;;;8.60;100191.00;;;;10476972;28;20323;-79
2022/11/15 07:24:31;;;;;;;5.43;4.10;;;;;8.70;100177.00;;;;10462607;28;20219;-79
2022/11/15 07:29:52;;;;;;;7.23;4.90;;;;;8.80;100172.00;;;;10462387;28;20190;-79
2022/11/15 07:35:12;;;;;;;9.83;5.13;;;;;9.00;100171.00;;;;10428267;28;20206;-79
2022/11/15 07:40:33;;;;;;;14.57;5.20;;;;;9.10;100185.00;;;;10458264;28;20215;-79
2022/11/15 07:45:53;;;;;;;8.20;4.63;;;;;9.20;100176.00;;;;10462895;28;20197;-79
2022/11/15 07:51:19;;;;;;;9.50;5.20;;;;;9.30;100172.00;;;;10460354;28;20205;-79
2022/11/15 07:56:40;;;;;;;7.70;4.60;;;;;9.50;100178.00;;;;10462533;28;20240;-79
2022/11/15 08:02:01;;;;;;;7.37;4.47;;;;;9.60;100167.00;;;;10453267;28;20258;-79
2022/11/15 08:07:21;;;;;;;8.03;3.70;;;;;9.80;100160.00;;;;10438294;28;20214;-79
2022/11/15 08:12:42;;;;;;;4.83;3.77;;;;;9.90;100147.00;;;;10445091;28;20177;-79
2022/11/15 08:18:12;;;;;;;5.23;3.50;;;;;10.10;100136.00;;;;10437205;28;20201;-79
2022/11/15 08:23:33;;;;;;;6.93;3.40;;;;;10.20;100122.00;;;;10430520;28;20224;-78
2022/11/15 08:28:54;;;;;;;5.70;3.07;;;;;10.50;100125.00;;;;10442740;28;20809;-78
2022/11/15 08:34:14;;;;;;;7.03;3.40;;;;;11.00;100105.00;;;;10440067;28;20347;-78
2022/11/15 08:39:35;;;;;;;8.63;2.57;;;;;11.20;100099.00;;;;10442058;28;20186;-78
2022/11/15 08:44:56;;;;;;;4.83;1.93;;;;;11.50;100097.00;;;;10500245;28;20193;-78
2022/11/15 08:50:17;;;;;;;4.77;2.33;;;;;11.50;100090.00;;;;10477857;28;20264;-78
2022/11/15 08:55:37;;;;;;;5.67;1.80;;;;;11.60;100098.00;;;;10476581;28;20320;-78
2022/11/15 09:00:58;;;;;;;5.90;1.90;;;;;11.70;100092.00;;;;10467686;28;20303;-78
2022/11/15 09:06:19;;;;;;;1.97;1.23;;;;;12.00;100096.00;;;;10455553;28;20228;-78
2022/11/15 09:11:39;;;;;;;4.33;1.70;;;;;12.40;100099.00;;;;10457722;28;20264;-78
2022/11/15 09:17:00;;;;;;;3.37;1.30;;;;;12.70;100099.00;;;;10499428;28;20189;-75
2022/11/15 09:22:21;;;;;;;3.13;1.23;;;;;12.70;100099.00;;;;10476374;28;20330;-76
2022/11/15 09:27:41;;;;;;;6.77;1.60;;;;;12.50;100095.00;;;;10466715;28;20204;-76
2022/11/15 09:33:12;;;;;;;2.03;1.20;;;;;12.30;100081.00;;;;10448174;28;20887;-76
2022/11/15 09:38:32;;;;;;;5.03;1.57;;;;;12.90;100075.00;;;;10480195;28;20193;-76
2022/11/15 09:44:13;;;;;;;4.40;1.70;;;;;13.10;100088.00;;;;10471252;28;20672;-76
2022/11/15 09:49:33;;;;;;;3.53;1.30;;;;;13.20;100092.00;;;;10465886;28;20262;-77
2022/11/15 09:54:53;;;;;;;3.37;1.23;;;;;13.20;100084.00;;;;10465076;28;20737;-77
2022/11/15 10:00:09;;;;;;;4.93;1.70;;;;;13.30;100080.00;;;;10446398;28;20190;-77
2022/11/15 10:05:34;;;;;;;7.83;1.37;;;;;13.40;100069.00;;;;10423741;28;20312;-77
2022/11/15 10:11:01;;;;;;;11.60;1.10;;;;;13.60;100062.00;;;;10462851;28;20200;-76
2022/11/15 10:16:37;;;;;;;4.67;1.47;;;;;14.00;100054.00;;;;10459952;28;20193;-76
2022/11/15 10:21:53;;;;;;;5.63;1.40;;;;;13.90;100049.00;;;;10485244;28;20227;-77
2022/11/15 10:26:56;;;;;;;4.07;1.10;;;;;14.10;100024.00;;;;10477884;28;20223;-76
2022/11/15 10:31:58;;;;;;;3.43;0.90;;;;;14.30;100029.00;;;;10435184;28;20627;-77
2022/11/15 10:37:01;;;;;;;4.65;1.08;;;;;14.60;100019.00;;;;10426981;28;20840;-76
2022/11/15 10:42:16;;;;;;;7.10;1.30;;;;;14.50;100007.00;;;;10419682;28;20263;-77
2022/11/15 10:47:24;;;;;;;3.42;1.05;;;;;14.00;99987.00;;;;10411013;28;20244;-76
2022/11/15 10:52:28;;;;;;;6.03;1.38;;;;;14.00;99975.00;;;;10456623;28;20270;-77
2022/11/15 10:57:36;;;;;;;3.93;1.20;;;;;13.90;99965.00;;;;10409133;28;20198;-76
2022/11/15 11:02:45;;;;;;;2.93;1.13;;;;;13.90;99956.00;;;;10432932;28;20209;-76
2022/11/15 11:07:56;;;;;;;4.67;1.10;;;;;13.90;99949.00;;;;10422967;28;20260;-76
2022/11/15 11:13:38;;;;;;;3.37;1.20;;;;;13.90;99943.00;;;;10441140;28;20197;-76
2022/11/15 11:19:04;;;;;;;6.40;1.07;;;;;13.90;99932.00;;;;10339517;28;20202;-77
2022/11/15 11:24:36;;;;;;;5.03;0.77;;;;;14.10;99919.00;;;;10438906;28;20225;-76
2022/11/15 11:30:00;;;;;;;4.03;1.17;;;;;14.10;99908.00;;;;10451549;28;20215;-77
2022/11/15 11:35:49;;;;;;;5.10;1.40;;;;;14.30;99913.00;;;;10437023;28;20189;-77
2022/11/15 11:41:34;;;;;;;3.65;1.10;;;;;14.60;99896.00;;;;10434033;28;20239;-77
2022/11/15 11:46:55;;;;;;;6.93;1.45;;;;;15.10;99884.00;;;;10429441;28;20665;-77
2022/11/15 11:52:09;;;;;;;2.63;1.00;;;;;15.00;99877.00;;;;10465561;28;20193;-77
2022/11/15 11:57:38;;;;;;;4.03;1.23;;;;;14.70;99867.00;;;;10471148;28;20271;-77
2022/11/15 12:02:54;;;;;;;5.03;1.08;;;;;14.40;99860.00;;;;10415770;28;20210;-77
2022/11/15 12:08:35;;;;;;;3.78;1.38;;;;;14.20;99845.00;;;;10432666;28;20221;-77
2022/11/15 12:13:38;;;;;;;4.53;1.08;;;;;14.20;99839.00;;;;10447678;28;20209;-77
2022/11/15 12:18:46;;;;;;;22.60;2.80;;;;;14.10;99828.00;;;;10432496;28;20194;-77
2022/11/15 12:23:52;;;;;;;4.40;1.30;;;;;14.00;99818.00;;;;10439465;28;20280;-77
2022/11/15 12:28:59;;;;;;;8.63;1.40;;;;;14.00;99807.00;;;;10442636;28;20190;-77
2022/11/15 12:34:22;;;;;;;6.75;1.08;;;;;13.90;99797.00;;;;10448320;28;20719;-78
2022/11/15 12:40:18;;;;;;;4.67;1.10;;;;;13.80;99792.00;;;;10481040;28;20720;-77
2022/11/15 12:45:36;;;;;;;5.60;1.30;;;;;13.90;99765.00;;;;10340018;28;20746;-77
2022/11/15 12:50:50;;;;;;;3.67;1.10;;;;;13.90;99757.00;;;;10416125;28;20232;-77
2022/11/15 12:56:04;;;;;;;6.40;1.40;;;;;13.90;99756.00;;;;10470568;28;20229;-77
2022/11/15 13:01:07;;;;;;;5.17;1.13;;;;;14.10;99738.00;;;;10462324;28;20283;-76
2022/11/15 13:06:34;;;;;;;1.63;1.00;;;;;14.40;99726.00;;;;10464697;28;20210;-77
2022/11/15 13:11:48;;;;;;;3.85;1.33;;;;;14.60;99715.00;;;;10479784;28;20192;-77
2022/11/15 13:16:58;;;;;;;3.72;1.20;;;;;14.80;99703.00;;;;10446223;28;20201;-77
2022/11/15 13:27:29;;;;;;;2.30;1.20;;;;;14.60;99682.00;;;;10435011;28;20262;-77
2022/11/15 13:32:31;;;;;;;1.23;1.08;;;;;14.20;99664.00;;;;10479477;28;20189;-77
2022/11/15 13:37:34;;;;;;;2.58;1.20;;;;;13.90;99664.00;;;;10427001;28;20221;-77
2022/11/15 13:42:36;;;;;;;0.98;0.63;;;;;13.70;99649.00;;;;10405033;28;20206;-77
2022/11/15 13:47:51;;;;;;;3.30;1.17;;;;;13.70;99638.00;;;;10405636;28;20201;-77
2022/11/15 13:52:56;;;;;;;4.13;1.50;;;;;13.70;99633.00;;;;10446482;28;20232;-77
2022/11/15 13:58:05;;;;;;;2.63;1.07;;;;;13.70;99620.00;;;;10476426;28;20190;-78
2022/11/15 14:03:24;;;;;;;3.67;1.40;;;;;13.70;99616.00;;;;10459965;28;20204;-77
2022/11/15 14:08:26;;;;;;;2.03;1.13;;;;;13.70;99607.00;;;;10443483;28;21205;-78
2022/11/15 14:13:30;;;;;;;2.93;0.97;;;;;13.70;99598.00;;;;10469505;28;20247;-77
2022/11/15 14:18:48;;;;;;;1.53;1.10;;;;;13.60;99590.00;;;;10443903;28;20240;-78
2022/11/15 14:23:51;;;;;;;3.23;1.37;;;;;13.50;99595.00;;;;10460814;28;20640;-77
2022/11/15 14:28:53;;;;;;;4.13;1.40;;;;;13.30;99583.00;;;;10459530;28;20201;-77
2022/11/15 14:33:55;;;;;;;2.57;1.13;;;;;13.10;99584.00;;;;10442125;28;20642;-76
2022/11/15 14:38:57;;;;;;;3.80;1.37;;;;;12.90;99575.00;;;;10475178;28;20234;-77
2022/11/15 14:43:59;;;;;;;4.03;1.87;;;;;12.80;99574.00;;;;10475276;28;20198;-77
2022/11/15 14:49:01;;;;;;;6.00;1.50;;;;;12.80;99567.00;;;;10426264;28;20202;-77
2022/11/15 14:54:03;;;;;;;3.07;1.20;;;;;12.70;99550.00;;;;10458235;28;20653;-77
2022/11/15 14:59:05;;;;;;;3.37;2.00;;;;;12.60;99556.00;;;;10457917;28;20251;-77
2022/11/15 15:04:09;;;;;;;2.37;1.83;;;;;12.60;99544.00;;;;10420481;28;20210;-77
2022/11/15 15:09:11;;;;;;;2.43;2.00;;;;;12.60;99542.00;;;;10399852;28;20206;-78
2022/11/15 15:14:14;;;;;;;2.70;1.57;;;;;12.50;99529.00;;;;10465381;28;20648;-78
2022/11/15 15:19:16;;;;;;;3.43;2.20;;;;;12.40;99527.00;;;;10490488;28;20302;-77
2022/11/15 15:24:18;;;;;;;3.83;2.00;;;;;12.30;99522.00;;;;10458796;28;20217;-78
2022/11/15 15:29:19;;;;;;;1.90;1.70;;;;;12.10;99515.00;;;;10487734;28;20194;-78
2022/11/15 15:34:21;;;;;;;4.67;2.63;;;;;12.00;99505.00;;;;10410928;28;20189;-78
2022/11/15 15:39:23;;;;;;;2.50;1.90;;;;;11.90;99504.00;;;;10460135;28;20682;-78
2022/11/15 15:44:25;;;;;;;1.57;1.47;;;;;11.80;99496.00;;;;10474357;28;20210;-77
2022/11/15 15:49:27;;;;;;;5.77;2.63;;;;;11.70;99502.00;;;;10492520;28;20193;-76
2022/11/15 15:54:29;;;;;;;5.13;2.03;;;;;11.70;99496.00;;;;10466748;28;20197;-77
2022/11/15 15:59:31;;;;;;;2.70;2.30;;;;;11.60;99500.00;;;;10440553;28;20201;-77
2022/11/15 16:04:33;;;;;;;5.17;1.87;;;;;11.50;99505.00;;;;10468127;28;20684;-77
2022/11/15 16:14:56;;;;;;;4.33;2.30;;;;;11.50;99484.00;;;;10426325;28;20200;-77
2022/11/15 16:19:59;;;;;;;3.70;2.87;;;;;11.50;99476.00;;;;10415359;28;20198;-77
2022/11/15 16:25:01;;;;;;;2.67;2.20;;;;;11.40;99481.00;;;;10415535;28;20216;-77
2022/11/15 16:30:03;;;;;;;3.50;2.60;;;;;11.40;99475.00;;;;10427722;28;20276;-78
2022/11/15 16:35:07;;;;;;;5.67;3.33;;;;;11.40;99475.00;;;;10448510;28;20198;-77
2022/11/15 16:40:29;;;;;;;7.23;3.03;;;;;11.40;99472.00;;;;10439444;28;20194;-77
2022/11/15 16:45:34;;;;;;;4.80;3.40;;;;;11.40;99480.00;;;;10421703;28;20210;-77
2022/11/15 16:50:38;;;;;;;6.40;3.73;;;;;11.40;99483.00;;;;10433513;28;20185;-77
2022/11/15 16:55:40;;;;;;;8.10;3.63;;;;;11.40;99476.00;;;;10480671;28;20197;-77
2022/11/15 17:00:42;;;;;;;4.37;3.67;;;;;11.40;99485.00;;;;10466102;28;20587;-77
2022/11/15 17:05:44;;;;;;;4.30;3.37;;;;;11.40;99476.00;;;;10419028;28;20214;-77
2022/11/15 17:10:46;;;;;;;5.37;3.50;;;;;11.50;99475.00;;;;10464918;28;20202;-78
2022/11/15 17:15:48;;;;;;;5.60;3.40;;;;;11.50;99469.00;;;;10449044;28;20194;-77
2022/11/15 17:20:50;;;;;;;4.13;3.00;;;;;11.50;99468.00;;;;10464842;28;20205;-77
2022/11/15 17:25:59;;;;;;;5.13;2.93;;;;;11.50;99465.00;;;;10480271;28;20205;-77
2022/11/15 17:31:24;;;;;;;7.87;3.43;;;;;11.50;99459.00;;;;10466915;28;20185;-78
2022/11/15 17:36:26;;;;;;;9.97;4.90;;;;;11.50;99450.00;;;;10470989;28;20205;-77
2022/11/15 17:41:28;;;;;;;6.47;4.20;;;;;11.50;99451.00;;;;10446577;28;20251;-77
2022/11/15 17:46:32;;;;;;;7.33;4.67;;;;;11.50;99454.00;;;;10463680;28;20606;-77
2022/11/15 17:51:34;;;;;;;8.70;5.50;;;;;11.50;99444.00;;;;10463429;28;20770;-77
2022/11/15 17:56:38;;;;;;;6.73;4.03;;;;;11.50;99439.00;;;;10479622;28;20194;-78
2022/11/15 18:01:40;;;;;;;7.97;4.60;;;;;11.50;99440.00;;;;10463149;28;20237;-77
2022/11/15 18:06:42;;;;;;;6.80;4.40;;;;;11.50;99431.00;;;;10445739;28;20235;-77
2022/11/15 18:11:49;;;;;;;7.37;4.77;;;;;11.50;99431.00;;;;10462187;28;20192;-77
2022/11/15 18:16:52;;;;;;;7.43;5.30;;;;;11.50;99418.00;;;;10445444;28;20192;-77
2022/11/15 18:21:58;;;;;;;14.10;7.87;;;;;11.50;99413.00;;;;10463040;28;20209;-77
2022/11/15 18:27:02;;;;;;;7.27;5.47;;;;;11.50;99415.00;;;;10446118;28;20189;-78
2022/11/15 18:32:10;;;;;;;4.70;4.03;;;;;11.50;99411.00;;;;10462055;28;20189;-78
2022/11/15 18:37:12;;;;;;;4.67;4.07;;;;;11.50;99413.00;;;;10429235;28;20222;-78
2022/11/15 18:42:14;;;;;;;3.90;3.03;;;;;11.60;99396.00;;;;10460457;28;20576;-77
2022/11/15 18:47:15;;;;;;;4.53;3.97;;;;;11.60;99404.00;;;;10461438;28;20193;-77
2022/11/15 18:52:17;;;;;;;4.33;3.93;;;;;11.60;99407.00;;;;10461178;28;20203;-77
2022/11/15 18:57:19;;;;;;;5.93;4.17;;;;;11.70;99397.00;;;;10443280;28;20220;-77
2022/11/15 19:02:21;;;;;;;4.87;3.53;;;;;11.70;99389.00;;;;10444071;28;20682;-77
2022/11/15 19:07:23;;;;;;;3.50;3.20;;;;;11.70;99383.00;;;;10443683;28;20221;-77
2022/11/15 19:12:25;;;;;;;3.73;3.07;;;;;11.70;99394.00;;;;10476247;28;20606;-78
2022/11/15 19:17:27;;;;;;;5.20;3.60;;;;;11.70;99386.00;;;;10476936;28;20272;-77
2022/11/15 19:22:29;;;;;;;4.40;3.40;;;;;11.70;99380.00;;;;10444096;28;20201;-77
2022/11/15 19:27:31;;;;;;;4.80;3.70;;;;;11.60;99375.00;;;;10442914;28;20206;-77
2022/11/15 19:32:38;;;;;;;4.20;3.30;;;;;11.60;99360.00;;;;10444307;28;20177;-77
2022/11/15 19:37:40;;;;;;;4.17;3.47;;;;;11.60;99360.00;;;;10443678;28;20204;-77
2022/11/15 19:42:42;;;;;;;4.20;3.37;;;;;11.60;99354.00;;;;10460080;28;20205;-77
2022/11/15 19:47:44;;;;;;;4.37;3.00;;;;;11.60;99366.00;;;;10477305;28;20735;-78
2022/11/15 19:52:46;;;;;;;5.23;3.57;;;;;11.60;99362.00;;;;10443167;28;20583;-77
2022/11/15 19:57:48;;;;;;;6.37;4.90;;;;;11.70;99352.00;;;;10442480;28;20190;-77
2022/11/15 20:02:49;;;;;;;6.00;4.70;;;;;11.70;99352.00;;;;10458697;28;20220;-77
2022/11/15 20:07:51;;;;;;;6.63;4.00;;;;;11.70;99363.00;;;;10446321;28;20209;-77
2022/11/15 20:12:53;;;;;;;6.73;4.97;;;;;11.70;99355.00;;;;10449548;28;20709;-78
2022/11/15 20:17:55;;;;;;;6.13;3.90;;;;;11.70;99346.00;;;;10453845;28;20201;-79
2022/11/15 20:22:57;;;;;;;5.63;3.50;;;;;11.70;99338.00;;;;10424129;28;20763;-78
2022/11/15 20:28:05;;;;;;;4.63;3.40;;;;;11.70;99346.00;;;;10424343;28;20216;-78
2022/11/15 20:33:08;;;;;;;4.03;3.43;;;;;11.70;99329.00;;;;10407697;28;20167;-78
2022/11/15 20:38:10;;;;;;;5.00;3.50;;;;;11.70;99333.00;;;;10423691;28;20187;-78
2022/11/15 20:43:14;;;;;;;5.40;3.80;;;;;11.70;99322.00;;;;10440702;28;20323;-78
2022/11/15 20:48:16;;;;;;;5.90;3.47;;;;;11.70;99321.00;;;;10431051;28;20201;-78
2022/11/15 20:53:19;;;;;;;6.47;3.60;;;;;11.70;99324.00;;;;10447959;28;20564;-78
2022/11/15 20:58:21;;;;;;;7.07;3.73;;;;;11.70;99313.00;;;;10463829;28;20193;-78
2022/11/15 21:03:23;;;;;;;6.40;3.30;;;;;11.70;99310.00;;;;10447512;28;20228;-78
2022/11/15 21:08:24;;;;;;;5.13;4.10;;;;;11.70;99306.00;;;;10447333;28;20205;-78
2022/11/15 21:13:26;;;;;;;6.60;4.27;;;;;11.70;99299.00;;;;10447323;28;20194;-78
2022/11/15 21:18:30;;;;;;;5.37;3.60;;;;;11.70;99297.00;;;;10446821;28;20194;-78
2022/11/15 21:23:32;;;;;;;5.80;3.57;;;;;11.70;99298.00;;;;10418002;28;20229;-79
2022/11/15 21:28:34;;;;;;;4.47;3.50;;;;;11.70;99294.00;;;;10462487;28;20652;-79
2022/11/15 21:33:37;;;;;;;7.23;4.23;;;;;11.70;99273.00;;;;10442078;28;20603;-78
2022/11/15 21:38:38;;;;;;;7.17;3.87;;;;;11.70;99277.00;;;;10424821;28;20486;-78
2022/11/15 21:43:40;;;;;;;5.23;3.33;;;;;11.70;99278.00;;;;10429504;28;20210;-78
2022/11/15 21:48:42;;;;;;;7.00;3.17;;;;;11.70;99277.00;;;;10426390;28;20683;-77
2022/11/15 21:53:44;;;;;;;5.83;3.03;;;;;11.70;99280.00;;;;10428571;28;20208;-77
2022/11/15 21:58:46;;;;;;;3.20;2.70;;;;;11.70;99272.00;;;;10443839;28;20205;-76
2022/11/15 22:03:48;;;;;;;4.47;2.83;;;;;11.80;99277.00;;;;10447457;28;20194;-77
2022/11/15 22:08:50;;;;;;;5.90;3.33;;;;;11.80;99270.00;;;;10442644;28;20226;-76
2022/11/15 22:13:52;;;;;;;4.73;3.20;;;;;11.80;99261.00;;;;10442422;28;20197;-77
2022/11/15 22:18:53;;;;;;;3.00;2.37;;;;;11.80;99255.00;;;;10412253;28;20205;-77
2022/11/15 22:23:56;;;;;;;3.30;2.10;;;;;11.70;99253.00;;;;10402471;28;20210;-77
2022/11/15 22:28:57;;;;;;;3.63;2.40;;;;;11.70;99245.00;;;;10408494;28;20192;-76
2022/11/15 22:33:59;;;;;;;4.73;2.50;;;;;11.80;99251.00;;;;10423403;28;20198;-76
2022/11/15 22:39:01;;;;;;;2.47;2.27;;;;;11.70;99261.00;;;;10431918;28;20369;-77
2022/11/15 22:44:03;;;;;;;2.63;1.83;;;;;11.70;99245.00;;;;10401057;28;20208;-77
2022/11/15 22:49:07;;;;;;;1.60;1.50;;;;;11.70;99232.00;;;;10401979;28;20209;-77
2022/11/15 22:54:09;;;;;;;2.40;1.97;;;;;11.70;99238.00;;;;10445086;28;20284;-77
2022/11/15 22:59:11;;;;;;;2.47;1.87;;;;;11.70;99259.00;;;;10457696;28;20238;-77
2022/11/15 23:04:13;;;;;;;2.77;1.87;;;;;11.70;99254.00;;;;10448285;28;20263;-77
2022/11/15 23:09:15;;;;;;;3.87;1.70;;;;;11.70;99243.00;;;;10426323;28;20194;-77
2022/11/15 23:14:17;;;;;;;2.30;2.10;;;;;11.70;99239.00;;;;10406964;28;20204;-77
2022/11/15 23:19:19;;;;;;;2.53;1.77;;;;;11.80;99240.00;;;;10434680;28;20557;-77
2022/11/15 23:24:21;;;;;;;3.30;2.00;;;;;11.80;99247.00;;;;10450842;28;20252;-76
2022/11/15 23:29:25;;;;;;;3.07;2.17;;;;;11.80;99245.00;;;;10459039;28;20170;-76
2022/11/15 23:34:28;;;;;;;3.47;2.63;;;;;11.80;99239.00;;;;10491130;28;20194;-77
2022/11/15 23:39:30;;;;;;;3.77;2.17;;;;;11.80;99242.00;;;;10473576;28;20193;-76
2022/11/15 23:44:32;;;;;;;5.13;2.57;;;;;11.80;99252.00;;;;10500185;28;20668;-77
2022/11/15 23:49:34;;;;;;;5.40;2.47;;;;;11.80;99257.00;;;;10482864;28;20197;-76
2022/11/15 23:54:36;;;;;;;3.50;2.20;;;;;11.80;99258.00;;;;10483214;28;20200;-77
2022/11/15 23:59:39;;;;;;;3.00;2.43;;;;;11.80;99252.00;;;;10466540;28;20251;-76
